Time;durP1;ratioP1;P1;durP2;ratioP2;P2;SDS_P1;SDS_P2;PMS_P1;PMS_P2;Temp;Humidity;BMP_temperature;BMP_pressure;BME280_temperature;BME280_humidity;BME280_pressure;Samples;Min_cycle;Max_cycle;Signal;HPM_P1;HPM_P2
2023/04/09 00:01:08;;;;;;;65.32;41.13;;;;;;;-146.25;98.37;52244.50;2081416;28;24907;-71
2023/04/09 00:02:12;;;;;;;65.88;42.20;;;;;;;-146.25;98.21;52274.94;2080767;28;33491;-71
2023/04/09 00:03:14;;;;;;;66.43;42.83;;;;;;;-146.25;98.17;52256.69;2072161;28;31575;-71
2023/04/09 00:04:16;;;;;;;71.43;42.13;;;;;;;-146.25;98.47;52254.66;2071911;28;35665;-70
2023/04/09 00:05:17;;;;;;;65.00;42.30;;;;;;;-146.25;98.24;52220.19;2080418;28;36079;-71
2023/04/09 00:06:19;;;;;;;66.50;42.15;;;;;;;-146.25;98.68;52240.47;2081254;28;20168;-71
2023/04/09 00:07:21;;;;;;;66.15;41.50;;;;;;;-146.25;98.73;52252.63;2080733;28;37774;-71
2023/04/09 00:08:22;;;;;;;65.28;41.88;;;;;;;-146.25;98.39;52234.38;2080246;28;31758;-71
2023/04/09 00:09:24;;;;;;;63.92;39.42;;;;;;;-146.25;98.09;52260.72;2081276;28;21695;-71
2023/04/09 00:10:26;;;;;;;61.67;40.13;;;;;;;-146.25;98.18;52254.66;2080649;28;36201;-71
2023/04/09 00:11:28;;;;;;;67.10;40.97;;;;;;;-146.25;98.44;52246.53;2081525;28;20092;-71
2023/04/09 00:12:29;;;;;;;60.42;38.55;;;;;;;-146.25;98.21;52250.59;2080349;28;38313;-71
2023/04/09 00:13:31;;;;;;;63.40;41.63;;;;;;;-146.25;98.85;52224.25;2080705;28;33576;-71
2023/04/09 00:14:40;;;;;;;70.50;41.78;;;;;;;-146.25;98.68;52254.66;2081266;28;20112;-71
2023/04/09 00:15:44;;;;;;;74.20;43.72;;;;;;;-146.25;98.83;52224.25;2080541;28;36788;-71
2023/04/09 00:16:46;;;;;;;67.30;41.58;;;;;;;-146.25;98.66;52246.53;2080830;28;32947;-71
2023/04/09 00:17:48;;;;;;;64.00;40.72;;;;;;;-146.25;98.68;52254.66;2080959;28;20847;-71
2023/04/09 00:18:50;;;;;;;68.10;42.78;;;;;;;-146.25;98.82;52197.88;2080505;28;38353;-71
2023/04/09 00:19:52;;;;;;;70.25;42.85;;;;;;;-146.25;98.98;52260.72;2080717;28;36488;-71
2023/04/09 00:20:54;;;;;;;68.03;42.88;;;;;;;-146.25;98.81;52234.38;2080586;28;34101;-71
2023/04/09 00:21:57;;;;;;;70.93;44.83;;;;;;;-146.25;98.40;52244.50;2080819;28;36112;-71
2023/04/09 00:22:59;;;;;;;70.13;42.97;;;;;;;-146.25;98.68;52274.94;2080282;28;37988;-71
2023/04/09 00:24:01;;;;;;;73.32;43.63;;;;;;;-146.25;99.07;52248.56;2080914;28;37017;-71
2023/04/09 00:25:03;;;;;;;71.65;43.25;;;;;;;-146.25;98.91;52228.28;2080790;28;20887;-71
2023/04/09 00:26:05;;;;;;;69.72;43.50;;;;;;;-146.25;98.69;52203.97;2080821;28;37246;-71
2023/04/09 00:27:06;;;;;;;69.07;42.67;;;;;;;-146.25;99.20;52236.41;2080276;28;33849;-71
2023/04/09 00:28:08;;;;;;;70.03;41.95;;;;;;;-146.25;99.34;52226.25;2081644;28;20042;-71
2023/04/09 00:29:10;;;;;;;74.22;43.22;;;;;;;-146.25;99.64;52270.88;2080899;28;23230;-71
2023/04/09 00:30:12;;;;;;;69.75;42.20;;;;;;;-146.25;99.56;52264.78;2080888;28;24296;-71
2023/04/09 00:31:16;;;;;;;71.22;44.08;;;;;;;-146.25;99.44;52230.31;2080883;28;20042;-71
2023/04/09 00:32:19;;;;;;;71.88;43.00;;;;;;;-146.25;99.62;52236.41;2081312;28;20042;-71
2023/04/09 00:33:21;;;;;;;74.15;43.78;;;;;;;-146.25;99.26;52246.53;2079831;28;32688;-71
2023/04/09 00:34:23;;;;;;;71.10;41.20;;;;;;;-146.25;99.74;52244.50;2081269;28;20127;-70
2023/04/09 00:35:24;;;;;;;64.40;42.05;;;;;;;-146.25;99.68;52278.97;2080143;28;35067;-71
2023/04/09 00:36:26;;;;;;;69.78;42.80;;;;;;;-146.25;99.53;52230.31;2081293;28;20042;-71
2023/04/09 00:37:28;;;;;;;71.00;42.63;;;;;;;-146.25;99.70;52242.50;2080682;28;26136;-71
2023/04/09 00:38:30;;;;;;;63.92;41.30;;;;;;;-146.25;99.60;52228.28;2081285;28;29352;-70
2023/04/09 00:39:33;;;;;;;72.68;42.72;;;;;;;-146.25;99.74;52250.59;2080095;28;29620;-71
2023/04/09 00:40:34;;;;;;;73.53;43.25;;;;;;;-146.25;99.58;52224.25;2080013;28;33911;-70
2023/04/09 00:41:36;;;;;;;67.93;42.55;;;;;;;-146.25;99.59;52222.22;2071834;28;20039;-71
2023/04/09 00:42:38;;;;;;;73.05;43.22;;;;;;;-146.25;99.76;52278.97;2072118;28;29110;-70
2023/04/09 00:43:39;;;;;;;68.00;42.17;;;;;;;-146.25;99.67;52266.81;2081152;28;20034;-71
2023/04/09 00:44:41;;;;;;;69.43;42.33;;;;;;;-146.25;99.91;52242.50;2080593;28;32939;-71
2023/04/09 00:45:44;;;;;;;73.15;43.58;;;;;;;-146.25;100.00;52285.06;2071202;28;29939;-71
2023/04/09 00:46:46;;;;;;;71.95;43.67;;;;;;;-146.25;100.00;52258.72;2072119;28;20243;-71
2023/04/09 00:47:47;;;;;;;77.53;43.45;;;;;;;-146.25;100.00;52272.91;2063821;28;20168;-70
2023/04/09 00:48:49;;;;;;;74.10;42.95;;;;;;;-146.25;100.00;52262.75;2056396;28;37447;-70
2023/04/09 00:49:51;;;;;;;72.45;42.53;;;;;;;-146.25;100.00;52258.72;2064319;28;20485;-70
2023/04/09 00:50:56;;;;;;;73.03;43.03;;;;;;;-146.25;100.00;52254.66;2072278;28;35117;-70
2023/04/09 00:52:00;;;;;;;76.07;44.03;;;;;;;-146.25;100.00;52287.09;2072310;28;21465;-70
2023/04/09 00:53:02;;;;;;;75.30;44.65;;;;;;;-146.25;100.00;52291.16;2063909;28;20046;-70
2023/04/09 00:54:04;;;;;;;71.82;43.10;;;;;;;-146.25;100.00;52295.19;2055917;28;21254;-72
2023/04/09 00:55:09;;;;;;;71.28;43.15;;;;;;;-146.25;100.00;52256.69;2056063;28;26418;-71
2023/04/09 00:56:12;;;;;;;72.28;42.72;;;;;;;-146.25;100.00;52236.41;2056113;28;20039;-72
2023/04/09 00:57:14;;;;;;;74.25;43.47;;;;;;;-146.25;100.00;52238.44;2048403;28;20905;-70
2023/04/09 00:58:16;;;;;;;69.78;41.50;;;;;;;-146.25;100.00;52283.03;2055782;28;35447;-70
2023/04/09 00:59:18;;;;;;;74.90;43.28;;;;;;;-146.25;100.00;52244.50;2063245;28;31456;-70
2023/04/09 01:00:20;;;;;;;74.45;44.47;;;;;;;-146.25;100.00;52236.41;2063852;28;20047;-70
2023/04/09 01:01:22;;;;;;;73.05;42.50;;;;;;;-146.25;100.00;52244.50;2072734;28;34690;-70
2023/04/09 01:02:24;;;;;;;74.40;43.35;;;;;;;-146.25;100.00;52242.50;2063409;28;26875;-70
2023/04/09 01:03:26;;;;;;;76.72;43.67;;;;;;;-146.25;100.00;52274.94;2063975;28;20042;-70
2023/04/09 01:04:27;;;;;;;76.32;43.22;;;;;;;-146.25;100.00;52236.41;2072057;28;20104;-70
2023/04/09 01:06:03;;;;;;;76.53;43.50;;;;;;;-146.25;100.00;52248.56;2072095;28;33226;-70
2023/04/09 01:07:38;;;;;;;74.90;42.80;;;;;;;-146.25;100.00;52254.66;2072315;28;33363;-70
2023/04/09 01:09:07;;;;;;;74.97;41.90;;;;;;;-146.25;100.00;52226.25;2072387;28;20069;-70
2023/04/09 01:10:34;;;;;;;73.78;41.78;;;;;;;-146.25;100.00;52236.41;2063786;28;20225;-71
2023/04/09 01:12:01;;;;;;;77.85;42.97;;;;;;;-146.25;100.00;52228.28;2067663;28;20173;-70
2023/04/09 01:13:15;;;;;;;73.90;41.80;;;;;;;-146.25;100.00;52276.97;2063180;28;20098;-70
2023/04/09 01:14:28;;;;;;;79.40;43.58;;;;;;;-146.25;100.00;52250.59;2065673;28;20122;-72
2023/04/09 01:15:38;;;;;;;73.38;42.65;;;;;;;-146.25;100.00;52260.72;2071907;28;20105;-70
2023/04/09 01:16:50;;;;;;;80.20;44.45;;;;;;;-146.25;100.00;52250.59;2062773;28;20047;-70
2023/04/09 01:18:04;;;;;;;76.53;43.75;;;;;;;-146.25;100.00;52254.66;2065100;28;20039;-70
2023/04/09 01:19:23;;;;;;;75.28;42.75;;;;;;;-146.25;100.00;52258.72;2063457;28;20595;-70
2023/04/09 01:20:42;;;;;;;77.65;44.38;;;;;;;-146.25;100.00;52240.47;2063814;28;20094;-72
2023/04/09 01:21:45;;;;;;;68.07;41.63;;;;;;;-146.25;100.00;52260.72;2066839;28;20876;-72
2023/04/09 01:23:08;;;;;;;77.45;44.03;;;;;;;-146.25;100.00;52254.66;2063573;28;20198;-72
2023/04/09 01:24:19;;;;;;;74.47;43.05;;;;;;;-146.25;100.00;52244.50;2067313;28;23946;-72
2023/04/09 01:25:52;;;;;;;76.13;42.05;;;;;;;-146.25;100.00;52283.03;2071654;28;20994;-72
2023/04/09 01:27:06;;;;;;;65.82;40.53;;;;;;;-146.25;100.00;52226.25;2072550;28;20077;-72
2023/04/09 01:28:34;;;;;;;70.65;41.17;;;;;;;-146.25;100.00;52242.50;2064258;28;20130;-72
2023/04/09 01:29:49;;;;;;;70.57;41.95;;;;;;;-146.25;100.00;52258.72;2065815;28;20051;-68
2023/04/09 01:31:03;;;;;;;77.93;42.28;;;;;;;-146.25;100.00;52258.72;2063591;28;28402;-72
2023/04/09 01:32:06;;;;;;;64.43;40.75;;;;;;;-146.25;100.00;52291.16;2057272;28;28739;-70
2023/04/09 01:33:11;;;;;;;73.95;43.35;;;;;;;-146.25;100.00;52262.75;2064852;28;34735;-71
2023/04/09 01:34:14;;;;;;;74.93;42.75;;;;;;;-146.25;100.00;52266.81;2072516;28;22820;-71
2023/04/09 01:35:18;;;;;;;75.10;43.90;;;;;;;-146.25;100.00;52246.53;2072108;28;21002;-72
2023/04/09 01:36:22;;;;;;;82.57;44.88;;;;;;;-146.25;100.00;52264.78;2071710;28;26596;-72
2023/04/09 01:37:25;;;;;;;75.55;42.30;;;;;;;-146.25;100.00;52260.72;2071550;28;28587;-72
2023/04/09 01:38:27;;;;;;;75.07;43.15;;;;;;;-146.25;100.00;52258.72;2072610;28;20741;-72
2023/04/09 01:39:30;;;;;;;76.45;43.08;;;;;;;-146.25;100.00;52256.69;2072351;28;20048;-72
2023/04/09 01:40:32;;;;;;;70.95;41.33;;;;;;;-146.25;100.00;52240.47;2063641;28;20098;-72
2023/04/09 01:41:34;;;;;;;76.45;44.72;;;;;;;-146.25;100.00;52260.72;2063432;28;22947;-72
2023/04/09 01:42:37;;;;;;;78.28;44.20;;;;;;;-146.25;100.00;52220.19;2072214;28;29234;-72
2023/04/09 01:43:40;;;;;;;84.60;44.35;;;;;;;-146.25;100.00;52258.72;2072244;28;20170;-71
2023/04/09 01:44:44;;;;;;;81.97;44.83;;;;;;;-146.25;100.00;52244.50;2063273;28;34622;-72
2023/04/09 01:46:14;;;;;;;79.75;43.90;;;;;;;-146.25;100.00;52224.25;2055433;28;26473;-71
2023/04/09 01:47:40;;;;;;;79.10;43.50;;;;;;;-146.25;100.00;52244.50;2061955;28;20063;-72
2023/04/09 01:48:45;;;;;;;85.38;44.47;;;;;;;-146.25;100.00;52242.50;2064217;28;20089;-71
2023/04/09 01:49:48;;;;;;;70.63;41.50;;;;;;;-146.25;100.00;52262.75;2071383;28;29599;-72
2023/04/09 01:50:50;;;;;;;78.63;43.83;;;;;;;-146.25;100.00;52260.72;2063198;28;20598;-71
2023/04/09 01:51:53;;;;;;;77.32;42.90;;;;;;;-146.25;100.00;52270.88;2055849;28;20829;-72
2023/04/09 01:52:55;;;;;;;67.95;41.08;;;;;;;-146.25;100.00;52232.34;2055413;28;32430;-71
2023/04/09 01:53:57;;;;;;;71.07;42.15;;;;;;;-146.25;100.00;52240.47;2055965;28;20039;-72
2023/04/09 01:54:59;;;;;;;73.72;43.53;;;;;;;-146.25;100.00;52250.59;2055543;28;27303;-71
2023/04/09 01:56:02;;;;;;;68.15;41.35;;;;;;;-146.25;100.00;52260.72;2063530;28;31490;-72
2023/04/09 01:57:04;;;;;;;67.97;41.88;;;;;;;-146.25;100.00;52256.69;2071562;28;20038;-71
2023/04/09 01:58:08;;;;;;;78.80;43.95;;;;;;;-146.25;100.00;52234.38;2063650;28;20877;-72
2023/04/09 01:59:14;;;;;;;74.95;43.03;;;;;;;-146.25;100.00;52246.53;2063464;28;20867;-71
2023/04/09 02:00:16;;;;;;;82.80;45.45;;;;;;;-146.25;100.00;52212.06;2063972;28;20046;-72
2023/04/09 02:01:38;;;;;;;78.47;43.03;;;;;;;-146.25;100.00;52276.97;2072172;28;20157;-72
2023/04/09 02:02:47;;;;;;;75.65;43.28;;;;;;;-146.25;100.00;52226.25;2071161;28;27045;-72
2023/04/09 02:03:57;;;;;;;81.35;43.33;;;;;;;-146.25;100.00;52234.38;2064910;28;28259;-71
2023/04/09 02:05:04;;;;;;;79.35;43.72;;;;;;;-146.25;100.00;52246.53;2065189;28;24890;-70
2023/04/09 02:06:33;;;;;;;66.15;40.65;;;;;;;-146.25;100.00;52236.41;2072858;28;20051;-71
2023/04/09 02:07:44;;;;;;;70.60;41.90;;;;;;;-146.25;100.00;52281.00;2071454;28;22293;-72
2023/04/09 02:08:51;;;;;;;76.53;42.22;;;;;;;-146.25;100.00;52270.88;2064762;28;20043;-72
2023/04/09 02:09:53;;;;;;;74.88;41.80;;;;;;;-146.25;100.00;52248.56;2064007;28;37526;-71
2023/04/09 02:10:57;;;;;;;74.65;42.50;;;;;;;-146.25;100.00;52283.03;2072184;28;24012;-72
2023/04/09 02:12:05;;;;;;;78.32;44.03;;;;;;;-146.25;100.00;52254.66;2071170;28;29481;-71
2023/04/09 02:13:15;;;;;;;77.68;43.45;;;;;;;-146.25;100.00;52230.31;2055865;28;20102;-72
2023/04/09 02:14:17;;;;;;;72.15;42.88;;;;;;;-146.25;100.00;52246.53;2067107;28;20854;-72
2023/04/09 02:15:23;;;;;;;73.80;42.05;;;;;;;-146.25;100.00;52246.53;2080282;28;20123;-72
2023/04/09 02:16:26;;;;;;;76.80;44.17;;;;;;;-146.25;100.00;52242.50;2071891;28;26353;-71
2023/04/09 02:17:28;;;;;;;75.65;42.35;;;;;;;-146.25;100.00;52238.44;2063451;28;21128;-71
2023/04/09 02:18:30;;;;;;;77.40;45.03;;;;;;;-146.25;100.00;52238.44;2071408;28;33872;-71
2023/04/09 02:19:43;;;;;;;76.50;43.60;;;;;;;-146.25;100.00;52244.50;2079519;28;32381;-72
2023/04/09 02:20:45;;;;;;;76.75;42.50;;;;;;;-146.25;100.00;52230.31;2080041;28;21424;-72
2023/04/09 02:21:47;;;;;;;80.80;41.70;;;;;;;-146.25;100.00;52242.50;2079385;28;29336;-70
2023/04/09 02:22:48;;;;;;;75.65;41.97;;;;;;;-146.25;100.00;52287.09;2080137;28;27852;-72
2023/04/09 02:23:50;;;;;;;71.97;40.67;;;;;;;-146.25;100.00;52206.00;2079793;28;33196;-71
2023/04/09 02:24:52;;;;;;;76.20;41.13;;;;;;;-146.25;100.00;52246.53;2071737;28;20042;-72
2023/04/09 02:25:54;;;;;;;70.22;40.47;;;;;;;-146.25;100.00;52281.00;2054507;28;32062;-71
2023/04/09 02:26:55;;;;;;;72.88;42.15;;;;;;;-146.25;100.00;52274.94;2063456;28;27924;-72
2023/04/09 02:27:57;;;;;;;71.88;42.25;;;;;;;-146.25;100.00;52256.69;2070682;28;21262;-71
2023/04/09 02:28:59;;;;;;;74.32;40.80;;;;;;;-146.25;100.00;52254.66;2071244;28;33548;-72
2023/04/09 02:30:01;;;;;;;74.55;42.65;;;;;;;-146.25;100.00;52242.50;2080215;28;20843;-71
2023/04/09 02:31:03;;;;;;;72.25;39.33;;;;;;;-146.25;100.00;52238.44;2080568;28;20078;-72
2023/04/09 02:32:07;;;;;;;71.47;41.67;;;;;;;-146.25;100.00;52238.44;2070838;28;31549;-72
2023/04/09 02:33:09;;;;;;;64.57;39.65;;;;;;;-146.25;100.00;52254.66;2071697;28;22489;-71
2023/04/09 02:34:14;;;;;;;72.07;40.10;;;;;;;-146.25;100.00;52297.22;2079750;28;29228;-72
2023/04/09 02:35:18;;;;;;;72.75;41.17;;;;;;;-146.25;100.00;52274.94;2079946;28;28841;-72
2023/04/09 02:36:20;;;;;;;70.30;40.10;;;;;;;-146.25;100.00;52272.91;2071372;28;20510;-72
2023/04/09 02:37:22;;;;;;;68.60;39.47;;;;;;;-146.25;100.00;52240.47;2062905;28;36793;-72
2023/04/09 02:38:24;;;;;;;63.17;36.42;;;;;;;-146.25;100.00;52266.81;2071496;28;20678;-72
2023/04/09 02:39:26;;;;;;;66.68;40.55;;;;;;;-146.25;100.00;52281.00;2071124;28;28878;-72
2023/04/09 02:40:27;;;;;;;76.28;40.15;;;;;;;-146.25;100.00;52214.09;2070606;28;37421;-72
2023/04/09 02:41:29;;;;;;;69.07;38.45;;;;;;;-146.25;100.00;52258.72;2071610;28;20053;-72
2023/04/09 02:42:31;;;;;;;75.07;40.45;;;;;;;-146.25;100.00;52260.72;2070699;28;34766;-72
2023/04/09 02:43:35;;;;;;;74.20;40.55;;;;;;;-146.25;100.00;52254.66;2079812;28;27036;-72
2023/04/09 02:44:37;;;;;;;64.90;37.97;;;;;;;-146.25;100.00;52254.66;2079517;28;31002;-72
2023/04/09 02:45:39;;;;;;;68.15;38.72;;;;;;;-146.25;100.00;52256.69;2071490;28;20045;-73
2023/04/09 02:46:41;;;;;;;74.85;40.35;;;;;;;-146.25;100.00;52250.59;2062978;28;20447;-72
2023/04/09 02:47:45;;;;;;;68.43;39.10;;;;;;;-146.25;100.00;52256.69;2063036;28;24731;-72
2023/04/09 02:48:47;;;;;;;68.63;38.75;;;;;;;-146.25;100.00;52238.44;2063303;28;20038;-72
2023/04/09 02:49:49;;;;;;;65.03;37.17;;;;;;;-146.25;100.00;52274.94;2071877;28;20047;-72
2023/04/09 02:50:53;;;;;;;66.03;37.15;;;;;;;-146.25;100.00;52234.38;2079874;28;20151;-72
2023/04/09 02:51:55;;;;;;;66.82;39.35;;;;;;;-146.25;100.00;52262.75;2080638;28;20038;-70
2023/04/09 02:52:57;;;;;;;77.72;39.78;;;;;;;-146.25;100.00;52242.50;2070960;28;20046;-71
2023/04/09 02:54:00;;;;;;;64.55;37.78;;;;;;;-146.25;100.00;52264.78;2063203;28;20039;-70
2023/04/09 02:55:05;;;;;;;71.13;39.40;;;;;;;-146.25;100.00;52266.81;2070934;28;24097;-71
2023/04/09 02:56:06;;;;;;;63.70;36.90;;;;;;;-146.25;100.00;52276.97;2071491;28;20109;-70
2023/04/09 02:57:08;;;;;;;67.82;35.53;;;;;;;-146.25;100.00;52266.81;2070626;28;20467;-71
2023/04/09 02:58:10;;;;;;;62.33;36.63;;;;;;;-146.25;100.00;52262.75;2080063;28;25873;-71
2023/04/09 02:59:12;;;;;;;64.07;36.65;;;;;;;-146.25;100.00;52291.16;2070778;28;20045;-71
2023/04/09 03:00:14;;;;;;;66.03;37.17;;;;;;;-146.25;100.00;52248.56;2063395;28;20852;-71
2023/04/09 03:01:16;;;;;;;66.13;37.25;;;;;;;-146.25;100.00;52258.72;2070962;28;20050;-71
2023/04/09 03:02:18;;;;;;;67.63;38.03;;;;;;;-146.25;100.00;52274.94;2079850;28;20030;-70
2023/04/09 03:03:19;;;;;;;61.60;37.25;;;;;;;-146.25;100.00;52264.78;2079187;28;22566;-70
2023/04/09 03:04:21;;;;;;;62.30;37.35;;;;;;;-146.25;100.00;52262.75;2071536;28;20093;-70
2023/04/09 03:05:23;;;;;;;70.75;38.60;;;;;;;-146.25;100.00;52248.56;2062282;28;29842;-70
2023/04/09 03:06:25;;;;;;;64.20;36.30;;;;;;;-146.25;100.00;52293.19;2071354;28;29086;-70
2023/04/09 03:07:27;;;;;;;67.07;37.83;;;;;;;-146.25;100.00;52248.56;2079861;28;24566;-71
2023/04/09 03:08:29;;;;;;;65.68;37.72;;;;;;;-146.25;100.00;52234.38;2080455;28;20038;-70
2023/04/09 03:09:31;;;;;;;68.22;37.97;;;;;;;-146.25;100.00;52289.13;2070695;28;30594;-70
2023/04/09 03:10:32;;;;;;;66.32;37.42;;;;;;;-146.25;100.00;52268.84;2071604;28;20039;-70
2023/04/09 03:11:34;;;;;;;63.00;35.97;;;;;;;-146.25;100.00;52295.19;2070496;28;35309;-71
2023/04/09 03:12:36;;;;;;;72.32;37.13;;;;;;;-146.25;100.00;52285.06;2071299;28;26280;-70
2023/04/09 03:13:38;;;;;;;66.95;38.03;;;;;;;-146.25;100.00;52214.09;2070587;28;20871;-70
2023/04/09 03:14:39;;;;;;;66.97;37.58;;;;;;;-146.25;100.00;52295.19;2071330;28;24313;-70
2023/04/09 03:15:41;;;;;;;63.55;36.47;;;;;;;-146.25;100.00;52270.88;2079288;28;37454;-70
2023/04/09 03:16:43;;;;;;;69.03;39.42;;;;;;;-146.25;100.00;52254.66;2080003;28;20038;-70
2023/04/09 03:17:45;;;;;;;62.65;37.20;;;;;;;-146.25;100.00;52327.66;2079877;28;26225;-71
2023/04/09 03:18:46;;;;;;;69.43;36.95;;;;;;;-146.25;100.00;52276.97;2079881;28;27570;-70
2023/04/09 03:19:48;;;;;;;66.47;37.63;;;;;;;-146.25;100.00;52250.59;2079767;28;20042;-70
2023/04/09 03:20:50;;;;;;;63.10;34.60;;;;;;;-146.25;100.00;52276.97;2080206;28;20852;-70
2023/04/09 03:21:52;;;;;;;63.33;37.15;;;;;;;-146.25;100.00;52266.81;2070912;28;20160;-70
2023/04/09 03:22:58;;;;;;;65.15;36.80;;;;;;;-146.25;100.00;52270.88;2064261;28;20197;-70
2023/04/09 03:24:06;;;;;;;63.13;36.63;;;;;;;-146.25;100.00;52272.91;2071030;28;20094;-70
2023/04/09 03:25:08;;;;;;;65.30;36.17;;;;;;;-146.25;100.00;52270.88;2071478;28;20116;-70
2023/04/09 03:26:10;;;;;;;62.05;35.97;;;;;;;-146.25;100.00;52291.16;2080008;28;20253;-70
2023/04/09 03:27:18;;;;;;;60.33;35.95;;;;;;;-146.25;100.00;52268.84;2071798;28;20194;-70
2023/04/09 03:28:25;;;;;;;64.63;36.58;;;;;;;-146.25;100.00;52289.13;2063671;28;20055;-70
2023/04/09 03:29:28;;;;;;;62.50;36.58;;;;;;;-146.25;100.00;52274.94;2063479;28;20051;-70
2023/04/09 03:30:30;;;;;;;65.15;36.50;;;;;;;-146.25;100.00;52224.25;2063003;28;20051;-72
2023/04/09 03:31:33;;;;;;;66.22;36.58;;;;;;;-146.25;100.00;52266.81;2063439;28;20128;-72
2023/04/09 03:32:35;;;;;;;64.40;37.25;;;;;;;-146.25;100.00;52244.50;2071110;28;20475;-72
2023/04/09 03:33:37;;;;;;;67.38;36.13;;;;;;;-146.25;100.00;52248.56;2071159;28;20086;-70
2023/04/09 03:34:41;;;;;;;73.40;38.10;;;;;;;-146.25;100.00;52313.44;2070614;28;25969;-72
2023/04/09 03:35:43;;;;;;;65.78;38.38;;;;;;;-146.25;100.00;52242.50;2071247;28;20051;-72
2023/04/09 03:36:46;;;;;;;66.20;37.17;;;;;;;-146.25;100.00;52254.66;2071098;28;20046;-72
2023/04/09 03:37:53;;;;;;;65.30;35.92;;;;;;;-146.25;100.00;52283.03;2063861;28;20173;-70
2023/04/09 03:38:56;;;;;;;64.25;37.42;;;;;;;-146.25;100.00;52289.13;2070866;28;27866;-70
2023/04/09 03:40:16;;;;;;;66.10;37.58;;;;;;;-146.25;100.00;52301.28;2071080;28;20054;-70
2023/04/09 03:41:18;;;;;;;69.38;37.10;;;;;;;-146.25;100.00;52246.53;2070902;28;27233;-70
2023/04/09 03:42:20;;;;;;;69.78;38.55;;;;;;;-146.25;100.00;52254.66;2071010;28;20043;-70
2023/04/09 03:43:24;;;;;;;62.80;36.47;;;;;;;-146.25;100.00;52228.28;2070762;28;20061;-70
2023/04/09 03:44:27;;;;;;;66.45;36.00;;;;;;;-146.25;100.00;52262.75;2071144;28;20046;-70
2023/04/09 03:45:44;;;;;;;64.80;36.30;;;;;;;-146.25;100.00;52248.56;2071667;28;20184;-70
2023/04/09 03:46:56;;;;;;;71.90;37.78;;;;;;;-146.25;100.00;52268.84;2064177;28;20168;-70
2023/04/09 03:47:59;;;;;;;69.47;36.78;;;;;;;-146.25;100.00;52264.78;2071209;28;20053;-70
2023/04/09 03:49:03;;;;;;;70.40;37.83;;;;;;;-146.25;100.00;52299.25;2071163;28;20085;-70
2023/04/09 03:50:13;;;;;;;64.00;35.55;;;;;;;-146.25;100.00;52266.81;2071441;28;20519;-70
2023/04/09 03:51:26;;;;;;;62.17;35.03;;;;;;;-146.25;100.00;52276.97;2070361;28;20046;-69
2023/04/09 03:52:31;;;;;;;63.40;37.03;;;;;;;-146.25;100.00;52238.44;2071091;28;20034;-71
2023/04/09 03:53:39;;;;;;;60.72;35.83;;;;;;;-146.25;100.00;52242.50;2063300;28;20145;-70
2023/04/09 03:54:42;;;;;;;65.88;36.95;;;;;;;-146.25;100.00;52238.44;2063347;28;20881;-70
2023/04/09 03:55:49;;;;;;;64.22;37.75;;;;;;;-146.25;100.00;52262.75;2071849;28;20051;-70
2023/04/09 03:56:58;;;;;;;65.45;37.53;;;;;;;-146.25;100.00;52242.50;2071168;28;20128;-70
2023/04/09 03:58:00;;;;;;;62.38;35.65;;;;;;;-146.25;100.00;52268.84;2071123;28;24097;-70
2023/04/09 03:59:05;;;;;;;65.63;36.83;;;;;;;-146.25;100.00;52274.94;2071072;28;20082;-70
2023/04/09 04:00:12;;;;;;;64.15;37.05;;;;;;;-146.25;100.00;52276.97;2055672;28;20816;-70
2023/04/09 04:01:51;;;;;;;63.83;36.40;;;;;;;-146.25;100.00;52258.72;2073369;28;20042;-70
2023/04/09 04:02:55;;;;;;;64.72;35.65;;;;;;;-146.25;100.00;52283.03;2070915;28;20092;-70
2023/04/09 04:04:17;;;;;;;65.40;36.53;;;;;;;-146.25;100.00;52270.88;2074162;28;20042;-70
2023/04/09 04:05:25;;;;;;;69.88;36.67;;;;;;;-146.25;100.00;52281.00;2070998;28;20177;-70
2023/04/09 04:06:34;;;;;;;63.45;34.45;;;;;;;-146.25;100.00;52248.56;2063354;28;20035;-70
2023/04/09 04:07:56;;;;;;;59.10;34.05;;;;;;;-146.25;100.00;52250.59;2074056;28;20050;-70
2023/04/09 04:09:02;;;;;;;67.57;35.58;;;;;;;-146.25;100.00;52301.28;2070925;28;20034;-70
2023/04/09 04:10:22;;;;;;;61.40;35.95;;;;;;;-146.25;100.00;52238.44;2071586;28;20050;-70
2023/04/09 04:11:23;;;;;;;66.93;34.80;;;;;;;-146.25;100.00;52258.72;2062990;28;20104;-70
2023/04/09 04:12:30;;;;;;;64.68;35.30;;;;;;;-146.25;100.00;52268.84;2063376;28;20050;-70
2023/04/09 04:13:42;;;;;;;64.22;35.60;;;;;;;-146.25;100.00;52283.03;2064353;28;20059;-70
2023/04/09 04:14:44;;;;;;;63.42;35.60;;;;;;;-146.25;100.00;52274.94;2064716;28;20051;-70
2023/04/09 04:16:07;;;;;;;61.47;35.20;;;;;;;-146.25;100.00;52268.84;2074008;28;20349;-71
2023/04/09 04:17:10;;;;;;;61.05;34.70;;;;;;;-146.25;100.00;52289.13;2072479;28;20043;-70
2023/04/09 04:18:12;;;;;;;62.90;35.05;;;;;;;-146.25;100.00;52268.84;2064121;28;20050;-70
2023/04/09 04:19:21;;;;;;;66.68;36.33;;;;;;;-146.25;100.00;52299.25;2064972;28;20121;-71
2023/04/09 04:20:25;;;;;;;60.20;34.55;;;;;;;-146.25;100.00;52260.72;2064784;28;20050;-70
2023/04/09 04:21:33;;;;;;;64.65;35.92;;;;;;;-146.25;100.00;52283.03;2064856;28;20157;-70
2023/04/09 04:22:36;;;;;;;60.72;35.40;;;;;;;-146.25;100.00;52254.66;2072039;28;20045;-70
2023/04/09 04:23:38;;;;;;;58.53;34.65;;;;;;;-146.25;100.00;52303.31;2064251;28;20039;-71
2023/04/09 04:24:53;;;;;;;58.25;33.58;;;;;;;-146.25;100.00;52283.03;2065468;28;20047;-70
2023/04/09 04:25:58;;;;;;;60.95;34.67;;;;;;;-146.25;100.00;52299.25;2072391;28;20900;-71
2023/04/09 04:27:08;;;;;;;60.10;33.65;;;;;;;-146.25;100.00;52242.50;2072094;28;20054;-71
2023/04/09 04:28:10;;;;;;;63.92;35.30;;;;;;;-146.25;100.00;52246.53;2072310;28;20078;-71
2023/04/09 04:29:15;;;;;;;58.63;33.50;;;;;;;-146.25;100.00;52268.84;2072116;28;20038;-71
2023/04/09 04:30:25;;;;;;;54.70;32.72;;;;;;;-146.25;100.00;52250.59;2065338;28;20165;-71
2023/04/09 04:31:37;;;;;;;58.05;33.65;;;;;;;-146.25;100.00;52242.50;2065662;28;20135;-71
2023/04/09 04:32:39;;;;;;;58.13;32.55;;;;;;;-146.25;100.00;52262.75;2071451;28;20057;-71
2023/04/09 04:33:44;;;;;;;54.55;31.65;;;;;;;-146.25;100.00;52252.63;2071925;28;20038;-71
2023/04/09 04:34:49;;;;;;;56.63;34.35;;;;;;;-146.25;100.00;52262.75;2064537;28;20039;-71
2023/04/09 04:36:12;;;;;;;56.90;32.55;;;;;;;-146.25;100.00;52272.91;2065127;28;20059;-71
2023/04/09 04:37:18;;;;;;;56.80;30.55;;;;;;;-146.25;100.00;52262.75;2066186;28;20178;-71
2023/04/09 04:38:20;;;;;;;54.90;32.22;;;;;;;-146.25;100.00;52270.88;2072248;28;20042;-71
2023/04/09 04:39:23;;;;;;;62.50;33.25;;;;;;;-146.25;100.00;52262.75;2072115;28;20034;-71
2023/04/09 04:40:30;;;;;;;57.30;31.38;;;;;;;-146.25;100.00;52258.72;2073050;28;20218;-71
2023/04/09 04:41:35;;;;;;;53.38;31.80;;;;;;;-146.25;100.00;52287.09;2080414;28;20073;-71
2023/04/09 04:42:43;;;;;;;54.85;32.28;;;;;;;-146.25;100.00;52250.59;2071865;28;20038;-71
2023/04/09 04:43:48;;;;;;;50.85;29.75;;;;;;;-146.25;100.00;52262.75;2064592;28;20061;-71
2023/04/09 04:44:54;;;;;;;51.45;31.00;;;;;;;-146.25;100.00;52258.72;2064133;28;20049;-71
2023/04/09 04:46:15;;;;;;;52.65;30.75;;;;;;;-146.25;100.00;52258.72;2075947;28;20104;-71
2023/04/09 04:47:18;;;;;;;46.90;28.35;;;;;;;-146.25;100.00;52250.59;2079968;28;24566;-71
2023/04/09 04:48:20;;;;;;;52.15;30.45;;;;;;;-146.25;100.00;52293.19;2073141;28;20050;-71
2023/04/09 04:49:22;;;;;;;54.75;30.80;;;;;;;-146.25;100.00;52230.31;2072676;28;20131;-71
2023/04/09 04:50:25;;;;;;;54.25;30.77;;;;;;;-146.25;100.00;52276.97;2072326;28;20116;-70
2023/04/09 04:51:34;;;;;;;51.42;30.30;;;;;;;-146.25;100.00;52252.63;2071275;28;20055;-70
2023/04/09 04:52:43;;;;;;;46.78;28.42;;;;;;;-146.25;100.00;52305.34;2072352;28;20031;-70